sensor_id;sensor_type;location;lat;lon;timestamp;P1;durP1;ratioP1;P2;durP2;ratioP2
65552;SDS011;72126;51.560;14.368;2024-02-23T00:00:34;1.48;;;1.20;;
65552;SDS011;72126;51.560;14.368;2024-02-23T00:02:59;1.40;;;1.30;;
65552;SDS011;72126;51.560;14.368;2024-02-23T00:05:24;1.10;;;1.00;;
65552;SDS011;72126;51.560;14.368;2024-02-23T00:07:49;1.20;;;1.10;;
65552;SDS011;72126;51.560;14.368;2024-02-23T00:10:14;1.20;;;1.10;;
65552;SDS011;72126;51.560;14.368;2024-02-23T00:12:40;0.98;;;0.95;;
65552;SDS011;72126;51.560;14.368;2024-02-23T00:15:05;1.20;;;1.10;;
65552;SDS011;72126;51.560;14.368;2024-02-23T00:17:31;1.00;;;1.00;;
65552;SDS011;72126;51.560;14.368;2024-02-23T00:19:56;1.20;;;1.10;;
65552;SDS011;72126;51.560;14.368;2024-02-23T00:22:21;1.10;;;1.00;;
65552;SDS011;72126;51.560;14.368;2024-02-23T00:24:46;1.30;;;1.13;;
65552;SDS011;72126;51.560;14.368;2024-02-23T00:27:12;1.38;;;1.10;;
65552;SDS011;72126;51.560;14.368;2024-02-23T00:29:37;1.10;;;1.00;;
65552;SDS011;72126;51.560;14.368;2024-02-23T00:32:03;0.80;;;0.80;;
65552;SDS011;72126;51.560;14.368;2024-02-23T00:34:28;1.25;;;1.02;;
65552;SDS011;72126;51.560;14.368;2024-02-23T00:36:54;1.45;;;1.10;;
65552;SDS011;72126;51.560;14.368;2024-02-23T00:39:19;1.43;;;1.30;;
65552;SDS011;72126;51.560;14.368;2024-02-23T00:41:44;1.20;;;1.10;;
65552;SDS011;72126;51.560;14.368;2024-02-23T00:44:09;1.33;;;1.00;;
65552;SDS011;72126;51.560;14.368;2024-02-23T00:46:34;1.20;;;1.10;;
65552;SDS011;72126;51.560;14.368;2024-02-23T00:48:59;1.30;;;1.20;;
65552;SDS011;72126;51.560;14.368;2024-02-23T00:51:25;1.10;;;1.00;;
65552;SDS011;72126;51.560;14.368;2024-02-23T00:53:50;0.93;;;0.90;;
65552;SDS011;72126;51.560;14.368;2024-02-23T00:56:15;1.10;;;1.00;;
65552;SDS011;72126;51.560;14.368;2024-02-23T00:58:40;1.20;;;1.10;;
65552;SDS011;72126;51.560;14.368;2024-02-23T01:01:06;1.30;;;1.17;;
65552;SDS011;72126;51.560;14.368;2024-02-23T01:03:31;1.38;;;1.08;;
65552;SDS011;72126;51.560;14.368;2024-02-23T01:05:56;1.35;;;1.10;;
65552;SDS011;72126;51.560;14.368;2024-02-23T01:08:21;0.80;;;0.80;;
65552;SDS011;72126;51.560;14.368;2024-02-23T01:10:47;1.10;;;1.00;;
65552;SDS011;72126;51.560;14.368;2024-02-23T01:13:12;1.48;;;1.23;;
65552;SDS011;72126;51.560;14.368;2024-02-23T01:15:37;1.33;;;0.90;;
65552;SDS011;72126;51.560;14.368;2024-02-23T01:18:03;1.10;;;1.00;;
65552;SDS011;72126;51.560;14.368;2024-02-23T01:20:28;0.90;;;0.80;;
65552;SDS011;72126;51.560;14.368;2024-02-23T01:22:54;1.83;;;0.88;;
65552;SDS011;72126;51.560;14.368;2024-02-23T01:25:19;0.80;;;0.80;;
65552;SDS011;72126;51.560;14.368;2024-02-23T01:27:44;1.00;;;0.90;;
65552;SDS011;72126;51.560;14.368;2024-02-23T01:30:09;1.17;;;1.07;;
65552;SDS011;72126;51.560;14.368;2024-02-23T01:32:35;1.13;;;1.02;;
65552;SDS011;72126;51.560;14.368;2024-02-23T01:35:00;1.10;;;1.00;;
65552;SDS011;72126;51.560;14.368;2024-02-23T01:37:25;1.17;;;1.03;;
65552;SDS011;72126;51.560;14.368;2024-02-23T01:39:51;1.13;;;1.02;;
65552;SDS011;72126;51.560;14.368;2024-02-23T01:42:16;1.23;;;1.13;;
65552;SDS011;72126;51.560;14.368;2024-02-23T01:44:41;1.10;;;1.00;;
65552;SDS011;72126;51.560;14.368;2024-02-23T01:47:06;0.97;;;0.97;;
65552;SDS011;72126;51.560;14.368;2024-02-23T01:49:32;1.00;;;1.00;;
65552;SDS011;72126;51.560;14.368;2024-02-23T01:51:59;0.95;;;0.95;;
65552;SDS011;72126;51.560;14.368;2024-02-23T01:54:25;1.13;;;1.02;;
65552;SDS011;72126;51.560;14.368;2024-02-23T01:56:51;1.17;;;0.95;;
65552;SDS011;72126;51.560;14.368;2024-02-23T01:59:17;1.00;;;0.90;;
65552;SDS011;72126;51.560;14.368;2024-02-23T02:01:43;0.90;;;0.90;;
65552;SDS011;72126;51.560;14.368;2024-02-23T02:04:08;1.00;;;0.90;;
65552;SDS011;72126;51.560;14.368;2024-02-23T02:06:34;0.90;;;0.90;;
65552;SDS011;72126;51.560;14.368;2024-02-23T02:08:59;1.25;;;1.10;;
65552;SDS011;72126;51.560;14.368;2024-02-23T02:11:25;0.98;;;0.95;;
65552;SDS011;72126;51.560;14.368;2024-02-23T02:13:50;2.90;;;1.20;;
65552;SDS011;72126;51.560;14.368;2024-02-23T02:16:15;1.10;;;1.00;;
65552;SDS011;72126;51.560;14.368;2024-02-23T02:18:41;1.02;;;0.95;;
65552;SDS011;72126;51.560;14.368;2024-02-23T02:21:06;1.13;;;0.90;;
65552;SDS011;72126;51.560;14.368;2024-02-23T02:23:31;1.05;;;0.95;;
65552;SDS011;72126;51.560;14.368;2024-02-23T02:25:57;1.10;;;1.00;;
65552;SDS011;72126;51.560;14.368;2024-02-23T02:28:23;0.80;;;0.80;;
65552;SDS011;72126;51.560;14.368;2024-02-23T02:30:50;1.17;;;1.08;;
65552;SDS011;72126;51.560;14.368;2024-02-23T02:33:16;1.17;;;1.00;;
65552;SDS011;72126;51.560;14.368;2024-02-23T02:35:41;1.15;;;1.10;;
65552;SDS011;72126;51.560;14.368;2024-02-23T02:38:06;1.00;;;0.90;;
65552;SDS011;72126;51.560;14.368;2024-02-23T02:40:31;1.23;;;1.00;;
65552;SDS011;72126;51.560;14.368;2024-02-23T02:42:57;1.13;;;1.00;;
65552;SDS011;72126;51.560;14.368;2024-02-23T02:45:22;1.10;;;1.00;;
65552;SDS011;72126;51.560;14.368;2024-02-23T02:47:47;1.10;;;1.00;;
65552;SDS011;72126;51.560;14.368;2024-02-23T02:50:12;0.80;;;0.80;;
65552;SDS011;72126;51.560;14.368;2024-02-23T02:52:38;1.00;;;0.90;;
65552;SDS011;72126;51.560;14.368;2024-02-23T02:55:03;0.67;;;0.63;;
65552;SDS011;72126;51.560;14.368;2024-02-23T02:57:28;0.88;;;0.85;;
65552;SDS011;72126;51.560;14.368;2024-02-23T02:59:54;0.85;;;0.85;;
65552;SDS011;72126;51.560;14.368;2024-02-23T03:02:19;1.00;;;0.90;;
65552;SDS011;72126;51.560;14.368;2024-02-23T03:04:47;0.80;;;0.80;;
65552;SDS011;72126;51.560;14.368;2024-02-23T03:07:13;1.00;;;1.00;;
65552;SDS011;72126;51.560;14.368;2024-02-23T03:09:38;0.90;;;0.90;;
65552;SDS011;72126;51.560;14.368;2024-02-23T03:12:03;1.00;;;1.00;;
65552;SDS011;72126;51.560;14.368;2024-02-23T03:14:29;0.88;;;0.80;;
65552;SDS011;72126;51.560;14.368;2024-02-23T03:16:54;0.97;;;0.80;;
65552;SDS011;72126;51.560;14.368;2024-02-23T03:19:19;1.70;;;1.20;;
65552;SDS011;72126;51.560;14.368;2024-02-23T03:21:44;1.20;;;0.90;;
65552;SDS011;72126;51.560;14.368;2024-02-23T03:24:09;0.80;;;0.80;;
65552;SDS011;72126;51.560;14.368;2024-02-23T03:26:35;0.93;;;0.87;;
65552;SDS011;72126;51.560;14.368;2024-02-23T03:29:00;1.10;;;1.00;;
65552;SDS011;72126;51.560;14.368;2024-02-23T03:31:25;1.00;;;0.90;;
65552;SDS011;72126;51.560;14.368;2024-02-23T03:33:50;0.90;;;0.90;;
65552;SDS011;72126;51.560;14.368;2024-02-23T03:36:15;1.37;;;1.10;;
65552;SDS011;72126;51.560;14.368;2024-02-23T03:38:41;0.93;;;0.88;;
65552;SDS011;72126;51.560;14.368;2024-02-23T03:41:06;1.20;;;1.10;;
65552;SDS011;72126;51.560;14.368;2024-02-23T03:43:31;2.35;;;0.95;;
65552;SDS011;72126;51.560;14.368;2024-02-23T03:45:56;1.00;;;0.93;;
65552;SDS011;72126;51.560;14.368;2024-02-23T03:48:21;1.27;;;0.90;;
65552;SDS011;72126;51.560;14.368;2024-02-23T03:50:47;2.20;;;0.90;;
65552;SDS011;72126;51.560;14.368;2024-02-23T03:53:12;0.90;;;0.90;;
65552;SDS011;72126;51.560;14.368;2024-02-23T03:55:37;1.20;;;0.90;;
65552;SDS011;72126;51.560;14.368;2024-02-23T03:58:02;0.83;;;0.80;;
65552;SDS011;72126;51.560;14.368;2024-02-23T04:00:28;1.27;;;0.80;;
65552;SDS011;72126;51.560;14.368;2024-02-23T04:02:53;1.03;;;1.00;;
65552;SDS011;72126;51.560;14.368;2024-02-23T04:05:18;1.30;;;0.83;;
65552;SDS011;72126;51.560;14.368;2024-02-23T04:07:43;0.83;;;0.83;;
65552;SDS011;72126;51.560;14.368;2024-02-23T04:10:08;1.73;;;0.90;;
65552;SDS011;72126;51.560;14.368;2024-02-23T04:12:34;0.77;;;0.77;;
65552;SDS011;72126;51.560;14.368;2024-02-23T04:14:59;0.80;;;0.80;;
65552;SDS011;72126;51.560;14.368;2024-02-23T04:17:24;0.80;;;0.80;;
65552;SDS011;72126;51.560;14.368;2024-02-23T04:19:49;1.43;;;0.80;;
65552;SDS011;72126;51.560;14.368;2024-02-23T04:22:14;0.90;;;0.90;;
65552;SDS011;72126;51.560;14.368;2024-02-23T04:24:40;0.70;;;0.70;;
65552;SDS011;72126;51.560;14.368;2024-02-23T04:27:06;0.70;;;0.70;;
65552;SDS011;72126;51.560;14.368;2024-02-23T04:29:32;0.80;;;0.80;;
65552;SDS011;72126;51.560;14.368;2024-02-23T04:31:57;0.80;;;0.80;;
65552;SDS011;72126;51.560;14.368;2024-02-23T04:34:24;1.05;;;0.80;;
65552;SDS011;72126;51.560;14.368;2024-02-23T04:36:49;0.85;;;0.85;;
65552;SDS011;72126;51.560;14.368;2024-02-23T04:39:14;0.80;;;0.80;;
65552;SDS011;72126;51.560;14.368;2024-02-23T04:41:40;1.00;;;0.90;;
65552;SDS011;72126;51.560;14.368;2024-02-23T04:44:05;1.13;;;0.95;;
65552;SDS011;72126;51.560;14.368;2024-02-23T04:46:30;1.00;;;0.90;;
65552;SDS011;72126;51.560;14.368;2024-02-23T04:48:56;1.10;;;0.93;;
65552;SDS011;72126;51.560;14.368;2024-02-23T04:51:21;0.77;;;0.63;;
65552;SDS011;72126;51.560;14.368;2024-02-23T04:53:46;0.80;;;0.80;;
65552;SDS011;72126;51.560;14.368;2024-02-23T04:56:11;1.00;;;0.90;;
65552;SDS011;72126;51.560;14.368;2024-02-23T04:58:37;0.80;;;0.80;;
65552;SDS011;72126;51.560;14.368;2024-02-23T05:01:02;1.20;;;0.90;;
65552;SDS011;72126;51.560;14.368;2024-02-23T05:03:27;0.70;;;0.70;;
65552;SDS011;72126;51.560;14.368;2024-02-23T05:05:52;1.50;;;0.90;;
65552;SDS011;72126;51.560;14.368;2024-02-23T05:08:18;1.27;;;0.90;;
65552;SDS011;72126;51.560;14.368;2024-02-23T05:10:43;0.80;;;0.80;;
65552;SDS011;72126;51.560;14.368;2024-02-23T05:13:11;0.90;;;0.90;;
65552;SDS011;72126;51.560;14.368;2024-02-23T05:15:37;0.70;;;0.70;;
65552;SDS011;72126;51.560;14.368;2024-02-23T05:18:02;0.75;;;0.75;;
65552;SDS011;72126;51.560;14.368;2024-02-23T05:20:27;0.82;;;0.75;;
65552;SDS011;72126;51.560;14.368;2024-02-23T05:22:52;1.00;;;0.90;;
65552;SDS011;72126;51.560;14.368;2024-02-23T05:25:18;0.70;;;0.70;;
65552;SDS011;72126;51.560;14.368;2024-02-23T05:27:43;1.00;;;0.93;;
65552;SDS011;72126;51.560;14.368;2024-02-23T05:30:08;0.97;;;0.90;;
65552;SDS011;72126;51.560;14.368;2024-02-23T05:32:34;0.80;;;0.80;;
65552;SDS011;72126;51.560;14.368;2024-02-23T05:34:59;0.70;;;0.70;;
65552;SDS011;72126;51.560;14.368;2024-02-23T05:37:24;1.33;;;1.00;;
65552;SDS011;72126;51.560;14.368;2024-02-23T05:39:49;2.23;;;0.90;;
65552;SDS011;72126;51.560;14.368;2024-02-23T05:42:14;1.13;;;0.90;;
65552;SDS011;72126;51.560;14.368;2024-02-23T05:44:42;1.03;;;0.80;;
65552;SDS011;72126;51.560;14.368;2024-02-23T05:47:08;1.55;;;0.90;;
65552;SDS011;72126;51.560;14.368;2024-02-23T05:49:33;0.80;;;0.80;;
65552;SDS011;72126;51.560;14.368;2024-02-23T05:51:58;0.83;;;0.80;;
65552;SDS011;72126;51.560;14.368;2024-02-23T05:54:24;0.80;;;0.80;;
65552;SDS011;72126;51.560;14.368;2024-02-23T05:56:49;0.87;;;0.80;;
65552;SDS011;72126;51.560;14.368;2024-02-23T05:59:14;0.77;;;0.77;;
65552;SDS011;72126;51.560;14.368;2024-02-23T06:01:39;1.13;;;0.90;;
65552;SDS011;72126;51.560;14.368;2024-02-23T06:04:04;0.83;;;0.83;;
65552;SDS011;72126;51.560;14.368;2024-02-23T06:06:32;0.60;;;0.60;;
65552;SDS011;72126;51.560;14.368;2024-02-23T06:08:58;0.73;;;0.70;;
65552;SDS011;72126;51.560;14.368;2024-02-23T06:11:23;0.80;;;0.80;;
65552;SDS011;72126;51.560;14.368;2024-02-23T06:13:48;0.77;;;0.77;;
65552;SDS011;72126;51.560;14.368;2024-02-23T06:16:13;0.77;;;0.77;;
65552;SDS011;72126;51.560;14.368;2024-02-23T06:18:39;0.85;;;0.70;;
65552;SDS011;72126;51.560;14.368;2024-02-23T06:21:10;0.93;;;0.73;;
65552;SDS011;72126;51.560;14.368;2024-02-23T06:23:39;0.70;;;0.70;;
65552;SDS011;72126;51.560;14.368;2024-02-23T06:26:05;0.90;;;0.80;;
65552;SDS011;72126;51.560;14.368;2024-02-23T06:28:30;0.93;;;0.88;;
65552;SDS011;72126;51.560;14.368;2024-02-23T06:30:55;0.73;;;0.73;;
65552;SDS011;72126;51.560;14.368;2024-02-23T06:33:20;1.13;;;0.70;;
65552;SDS011;72126;51.560;14.368;2024-02-23T06:35:46;0.80;;;0.80;;
65552;SDS011;72126;51.560;14.368;2024-02-23T06:38:14;0.80;;;0.80;;
65552;SDS011;72126;51.560;14.368;2024-02-23T06:40:39;0.70;;;0.70;;
65552;SDS011;72126;51.560;14.368;2024-02-23T06:43:04;0.70;;;0.70;;
65552;SDS011;72126;51.560;14.368;2024-02-23T06:45:29;0.70;;;0.70;;
65552;SDS011;72126;51.560;14.368;2024-02-23T06:47:54;0.73;;;0.73;;
65552;SDS011;72126;51.560;14.368;2024-02-23T06:50:20;0.80;;;0.80;;
65552;SDS011;72126;51.560;14.368;2024-02-23T06:52:45;0.80;;;0.80;;
65552;SDS011;72126;51.560;14.368;2024-02-23T06:55:10;0.90;;;0.60;;
65552;SDS011;72126;51.560;14.368;2024-02-23T06:57:35;0.60;;;0.60;;
65552;SDS011;72126;51.560;14.368;2024-02-23T07:00:00;0.70;;;0.70;;
65552;SDS011;72126;51.560;14.368;2024-02-23T07:02:26;0.70;;;0.70;;
65552;SDS011;72126;51.560;14.368;2024-02-23T07:04:51;0.57;;;0.57;;
65552;SDS011;72126;51.560;14.368;2024-02-23T07:07:16;0.50;;;0.50;;
65552;SDS011;72126;51.560;14.368;2024-02-23T07:09:41;1.03;;;0.80;;
65552;SDS011;72126;51.560;14.368;2024-02-23T07:12:06;0.80;;;0.70;;
65552;SDS011;72126;51.560;14.368;2024-02-23T07:14:32;0.65;;;0.65;;
65552;SDS011;72126;51.560;14.368;2024-02-23T07:16:57;0.53;;;0.53;;
65552;SDS011;72126;51.560;14.368;2024-02-23T07:19:22;1.37;;;0.77;;
65552;SDS011;72126;51.560;14.368;2024-02-23T07:21:47;0.70;;;0.70;;
65552;SDS011;72126;51.560;14.368;2024-02-23T07:24:13;0.80;;;0.80;;
65552;SDS011;72126;51.560;14.368;2024-02-23T07:26:38;0.60;;;0.60;;
65552;SDS011;72126;51.560;14.368;2024-02-23T07:29:03;0.70;;;0.70;;
65552;SDS011;72126;51.560;14.368;2024-02-23T07:31:28;0.70;;;0.70;;
65552;SDS011;72126;51.560;14.368;2024-02-23T07:33:54;0.70;;;0.70;;
65552;SDS011;72126;51.560;14.368;2024-02-23T07:36:19;0.77;;;0.67;;
65552;SDS011;72126;51.560;14.368;2024-02-23T07:38:44;1.00;;;0.80;;
65552;SDS011;72126;51.560;14.368;2024-02-23T07:41:12;0.63;;;0.63;;
65552;SDS011;72126;51.560;14.368;2024-02-23T07:43:37;0.70;;;0.70;;
65552;SDS011;72126;51.560;14.368;2024-02-23T07:46:02;0.73;;;0.73;;
65552;SDS011;72126;51.560;14.368;2024-02-23T07:48:28;0.80;;;0.80;;
65552;SDS011;72126;51.560;14.368;2024-02-23T07:50:53;0.60;;;0.60;;
65552;SDS011;72126;51.560;14.368;2024-02-23T07:53:18;0.60;;;0.60;;
65552;SDS011;72126;51.560;14.368;2024-02-23T07:55:44;0.83;;;0.70;;
65552;SDS011;72126;51.560;14.368;2024-02-23T07:58:09;0.88;;;0.80;;
65552;SDS011;72126;51.560;14.368;2024-02-23T08:00:34;0.70;;;0.70;;
65552;SDS011;72126;51.560;14.368;2024-02-23T08:02:59;0.73;;;0.70;;
65552;SDS011;72126;51.560;14.368;2024-02-23T08:05:24;0.67;;;0.67;;
65552;SDS011;72126;51.560;14.368;2024-02-23T08:07:50;0.60;;;0.60;;
65552;SDS011;72126;51.560;14.368;2024-02-23T08:10:15;0.80;;;0.80;;
65552;SDS011;72126;51.560;14.368;2024-02-23T08:12:40;0.80;;;0.70;;
65552;SDS011;72126;51.560;14.368;2024-02-23T08:15:05;0.80;;;0.80;;
65552;SDS011;72126;51.560;14.368;2024-02-23T08:17:31;0.75;;;0.75;;
65552;SDS011;72126;51.560;14.368;2024-02-23T08:19:56;0.63;;;0.63;;
65552;SDS011;72126;51.560;14.368;2024-02-23T08:22:21;0.60;;;0.60;;
65552;SDS011;72126;51.560;14.368;2024-02-23T08:24:47;2.17;;;0.70;;
65552;SDS011;72126;51.560;14.368;2024-02-23T08:27:12;1.50;;;0.80;;
65552;SDS011;72126;51.560;14.368;2024-02-23T08:29:37;0.87;;;0.70;;
65552;SDS011;72126;51.560;14.368;2024-02-23T08:32:03;0.98;;;0.70;;
65552;SDS011;72126;51.560;14.368;2024-02-23T08:34:28;0.70;;;0.70;;
65552;SDS011;72126;51.560;14.368;2024-02-23T08:36:53;1.00;;;0.60;;
65552;SDS011;72126;51.560;14.368;2024-02-23T08:39:19;0.70;;;0.70;;
65552;SDS011;72126;51.560;14.368;2024-02-23T08:41:44;0.80;;;0.70;;
65552;SDS011;72126;51.560;14.368;2024-02-23T08:44:09;0.80;;;0.80;;
65552;SDS011;72126;51.560;14.368;2024-02-23T08:46:34;1.03;;;0.67;;
65552;SDS011;72126;51.560;14.368;2024-02-23T08:48:59;1.17;;;0.80;;
65552;SDS011;72126;51.560;14.368;2024-02-23T08:51:24;1.27;;;0.70;;
65552;SDS011;72126;51.560;14.368;2024-02-23T08:53:50;0.50;;;0.50;;
65552;SDS011;72126;51.560;14.368;2024-02-23T08:56:15;0.60;;;0.60;;
65552;SDS011;72126;51.560;14.368;2024-02-23T08:58:40;2.10;;;0.87;;
65552;SDS011;72126;51.560;14.368;2024-02-23T09:01:05;0.83;;;0.70;;
65552;SDS011;72126;51.560;14.368;2024-02-23T09:03:30;0.60;;;0.60;;
65552;SDS011;72126;51.560;14.368;2024-02-23T09:05:56;0.80;;;0.80;;
65552;SDS011;72126;51.560;14.368;2024-02-23T09:08:21;0.57;;;0.57;;
65552;SDS011;72126;51.560;14.368;2024-02-23T09:10:46;0.73;;;0.57;;
65552;SDS011;72126;51.560;14.368;2024-02-23T09:13:11;0.50;;;0.50;;
65552;SDS011;72126;51.560;14.368;2024-02-23T09:15:36;0.70;;;0.70;;
65552;SDS011;72126;51.560;14.368;2024-02-23T09:18:02;0.63;;;0.63;;
65552;SDS011;72126;51.560;14.368;2024-02-23T09:20:27;0.65;;;0.65;;
65552;SDS011;72126;51.560;14.368;2024-02-23T09:22:52;0.67;;;0.67;;
65552;SDS011;72126;51.560;14.368;2024-02-23T09:25:18;0.60;;;0.60;;
65552;SDS011;72126;51.560;14.368;2024-02-23T09:27:43;0.50;;;0.50;;
65552;SDS011;72126;51.560;14.368;2024-02-23T09:30:12;0.80;;;0.80;;
65552;SDS011;72126;51.560;14.368;2024-02-23T09:32:38;0.70;;;0.70;;
65552;SDS011;72126;51.560;14.368;2024-02-23T09:35:03;0.67;;;0.67;;
65552;SDS011;72126;51.560;14.368;2024-02-23T09:37:28;0.73;;;0.70;;
65552;SDS011;72126;51.560;14.368;2024-02-23T09:39:54;0.80;;;0.80;;
65552;SDS011;72126;51.560;14.368;2024-02-23T09:42:19;0.70;;;0.70;;
65552;SDS011;72126;51.560;14.368;2024-02-23T09:44:47;0.68;;;0.68;;
65552;SDS011;72126;51.560;14.368;2024-02-23T09:47:16;0.60;;;0.60;;
65552;SDS011;72126;51.560;14.368;2024-02-23T09:49:42;0.53;;;0.53;;
65552;SDS011;72126;51.560;14.368;2024-02-23T09:52:08;0.93;;;0.80;;
65552;SDS011;72126;51.560;14.368;2024-02-23T09:54:35;0.55;;;0.55;;
65552;SDS011;72126;51.560;14.368;2024-02-23T09:57:03;0.57;;;0.57;;
65552;SDS011;72126;51.560;14.368;2024-02-23T09:59:32;0.73;;;0.47;;
65552;SDS011;72126;51.560;14.368;2024-02-23T10:01:58;0.70;;;0.60;;
65552;SDS011;72126;51.560;14.368;2024-02-23T10:04:24;0.60;;;0.60;;
65552;SDS011;72126;51.560;14.368;2024-02-23T10:06:52;0.65;;;0.65;;
65552;SDS011;72126;51.560;14.368;2024-02-23T10:09:17;0.60;;;0.60;;
65552;SDS011;72126;51.560;14.368;2024-02-23T10:11:42;0.50;;;0.50;;
65552;SDS011;72126;51.560;14.368;2024-02-23T10:14:08;0.60;;;0.60;;
65552;SDS011;72126;51.560;14.368;2024-02-23T10:16:33;0.50;;;0.50;;
65552;SDS011;72126;51.560;14.368;2024-02-23T10:18:58;0.57;;;0.57;;
65552;SDS011;72126;51.560;14.368;2024-02-23T10:21:29;0.57;;;0.57;;
65552;SDS011;72126;51.560;14.368;2024-02-23T10:23:55;0.63;;;0.63;;
65552;SDS011;72126;51.560;14.368;2024-02-23T10:26:20;0.88;;;0.60;;
65552;SDS011;72126;51.560;14.368;2024-02-23T10:28:45;0.60;;;0.60;;
65552;SDS011;72126;51.560;14.368;2024-02-23T10:31:11;0.63;;;0.63;;
65552;SDS011;72126;51.560;14.368;2024-02-23T10:33:36;0.60;;;0.60;;
65552;SDS011;72126;51.560;14.368;2024-02-23T10:36:02;0.50;;;0.50;;
65552;SDS011;72126;51.560;14.368;2024-02-23T10:38:30;0.60;;;0.60;;
65552;SDS011;72126;51.560;14.368;2024-02-23T10:40:57;0.50;;;0.50;;
65552;SDS011;72126;51.560;14.368;2024-02-23T10:43:26;0.80;;;0.70;;
65552;SDS011;72126;51.560;14.368;2024-02-23T10:45:55;0.68;;;0.60;;
65552;SDS011;72126;51.560;14.368;2024-02-23T10:48:22;0.50;;;0.50;;
65552;SDS011;72126;51.560;14.368;2024-02-23T10:50:49;0.50;;;0.50;;
65552;SDS011;72126;51.560;14.368;2024-02-23T10:53:15;0.60;;;0.60;;
65552;SDS011;72126;51.560;14.368;2024-02-23T10:55:41;0.60;;;0.60;;
65552;SDS011;72126;51.560;14.368;2024-02-23T10:58:09;0.70;;;0.70;;
65552;SDS011;72126;51.560;14.368;2024-02-23T11:00:36;0.60;;;0.60;;
65552;SDS011;72126;51.560;14.368;2024-02-23T11:03:02;0.77;;;0.60;;
65552;SDS011;72126;51.560;14.368;2024-02-23T11:05:29;0.70;;;0.70;;
65552;SDS011;72126;51.560;14.368;2024-02-23T11:07:57;0.68;;;0.68;;
65552;SDS011;72126;51.560;14.368;2024-02-23T11:10:22;0.70;;;0.70;;
65552;SDS011;72126;51.560;14.368;2024-02-23T11:12:48;0.60;;;0.60;;
65552;SDS011;72126;51.560;14.368;2024-02-23T11:15:29;0.50;;;0.50;;
65552;SDS011;72126;51.560;14.368;2024-02-23T11:17:55;0.80;;;0.63;;
65552;SDS011;72126;51.560;14.368;2024-02-23T11:20:23;0.50;;;0.50;;
65552;SDS011;72126;51.560;14.368;2024-02-23T11:22:51;0.60;;;0.60;;
65552;SDS011;72126;51.560;14.368;2024-02-23T11:25:17;1.27;;;0.60;;
65552;SDS011;72126;51.560;14.368;2024-02-23T11:27:42;0.65;;;0.50;;
65552;SDS011;72126;51.560;14.368;2024-02-23T11:30:08;0.50;;;0.50;;
65552;SDS011;72126;51.560;14.368;2024-02-23T11:32:41;0.65;;;0.65;;
65552;SDS011;72126;51.560;14.368;2024-02-23T11:35:10;0.70;;;0.70;;
65552;SDS011;72126;51.560;14.368;2024-02-23T11:37:48;4.50;;;0.80;;
65552;SDS011;72126;51.560;14.368;2024-02-23T11:40:14;0.70;;;0.70;;
65552;SDS011;72126;51.560;14.368;2024-02-23T11:42:43;0.60;;;0.60;;
65552;SDS011;72126;51.560;14.368;2024-02-23T11:45:08;0.47;;;0.47;;
65552;SDS011;72126;51.560;14.368;2024-02-23T11:47:33;0.50;;;0.50;;
65552;SDS011;72126;51.560;14.368;2024-02-23T11:49:58;1.50;;;0.60;;
65552;SDS011;72126;51.560;14.368;2024-02-23T11:52:24;0.63;;;0.50;;
65552;SDS011;72126;51.560;14.368;2024-02-23T11:54:49;0.60;;;0.60;;
65552;SDS011;72126;51.560;14.368;2024-02-23T11:57:14;0.60;;;0.50;;
65552;SDS011;72126;51.560;14.368;2024-02-23T11:59:40;0.57;;;0.50;;
65552;SDS011;72126;51.560;14.368;2024-02-23T12:02:06;0.40;;;0.40;;
65552;SDS011;72126;51.560;14.368;2024-02-23T12:04:31;0.63;;;0.63;;
65552;SDS011;72126;51.560;14.368;2024-02-23T12:06:56;0.50;;;0.50;;
65552;SDS011;72126;51.560;14.368;2024-02-23T12:09:22;0.60;;;0.60;;
65552;SDS011;72126;51.560;14.368;2024-02-23T12:11:47;0.50;;;0.50;;
65552;SDS011;72126;51.560;14.368;2024-02-23T12:14:13;0.60;;;0.60;;
65552;SDS011;72126;51.560;14.368;2024-02-23T12:16:39;0.85;;;0.57;;
65552;SDS011;72126;51.560;14.368;2024-02-23T12:19:05;0.50;;;0.50;;
65552;SDS011;72126;51.560;14.368;2024-02-23T12:21:30;0.50;;;0.40;;
65552;SDS011;72126;51.560;14.368;2024-02-23T12:23:55;0.70;;;0.70;;
65552;SDS011;72126;51.560;14.368;2024-02-23T12:26:20;0.50;;;0.50;;
65552;SDS011;72126;51.560;14.368;2024-02-23T12:28:45;0.50;;;0.50;;
65552;SDS011;72126;51.560;14.368;2024-02-23T12:31:11;0.88;;;0.52;;
65552;SDS011;72126;51.560;14.368;2024-02-23T12:33:39;0.50;;;0.50;;
65552;SDS011;72126;51.560;14.368;2024-02-23T12:36:06;0.60;;;0.60;;
65552;SDS011;72126;51.560;14.368;2024-02-23T12:38:32;0.95;;;0.60;;
65552;SDS011;72126;51.560;14.368;2024-02-23T12:40:59;1.10;;;0.60;;
65552;SDS011;72126;51.560;14.368;2024-02-23T12:43:26;0.45;;;0.45;;
65552;SDS011;72126;51.560;14.368;2024-02-23T12:45:54;0.50;;;0.50;;
65552;SDS011;72126;51.560;14.368;2024-02-23T12:48:20;0.40;;;0.40;;
65552;SDS011;72126;51.560;14.368;2024-02-23T12:50:45;0.50;;;0.50;;
65552;SDS011;72126;51.560;14.368;2024-02-23T12:53:13;0.52;;;0.50;;
65552;SDS011;72126;51.560;14.368;2024-02-23T12:55:56;0.57;;;0.50;;
65552;SDS011;72126;51.560;14.368;2024-02-23T12:58:21;0.50;;;0.50;;
65552;SDS011;72126;51.560;14.368;2024-02-23T13:00:46;0.50;;;0.50;;
65552;SDS011;72126;51.560;14.368;2024-02-23T13:03:11;0.50;;;0.50;;
65552;SDS011;72126;51.560;14.368;2024-02-23T13:05:37;0.80;;;0.65;;
65552;SDS011;72126;51.560;14.368;2024-02-23T13:08:02;0.90;;;0.43;;
65552;SDS011;72126;51.560;14.368;2024-02-23T13:10:27;0.40;;;0.40;;
65552;SDS011;72126;51.560;14.368;2024-02-23T13:12:52;0.50;;;0.50;;
65552;SDS011;72126;51.560;14.368;2024-02-23T13:15:18;0.40;;;0.40;;
65552;SDS011;72126;51.560;14.368;2024-02-23T13:17:43;0.97;;;0.60;;
65552;SDS011;72126;51.560;14.368;2024-02-23T13:20:08;0.40;;;0.40;;
65552;SDS011;72126;51.560;14.368;2024-02-23T13:22:34;0.50;;;0.50;;
65552;SDS011;72126;51.560;14.368;2024-02-23T13:24:59;0.50;;;0.50;;
65552;SDS011;72126;51.560;14.368;2024-02-23T13:27:27;0.50;;;0.50;;
65552;SDS011;72126;51.560;14.368;2024-02-23T13:29:52;0.40;;;0.40;;
65552;SDS011;72126;51.560;14.368;2024-02-23T13:32:17;0.40;;;0.40;;
65552;SDS011;72126;51.560;14.368;2024-02-23T13:34:43;0.40;;;0.40;;
65552;SDS011;72126;51.560;14.368;2024-02-23T13:37:08;0.50;;;0.50;;
65552;SDS011;72126;51.560;14.368;2024-02-23T13:39:33;0.50;;;0.50;;
65552;SDS011;72126;51.560;14.368;2024-02-23T13:41:58;0.50;;;0.50;;
65552;SDS011;72126;51.560;14.368;2024-02-23T13:44:24;0.80;;;0.60;;
65552;SDS011;72126;51.560;14.368;2024-02-23T13:46:49;0.35;;;0.30;;
65552;SDS011;72126;51.560;14.368;2024-02-23T13:49:14;0.50;;;0.50;;
65552;SDS011;72126;51.560;14.368;2024-02-23T13:51:39;0.50;;;0.50;;
65552;SDS011;72126;51.560;14.368;2024-02-23T13:54:05;0.63;;;0.40;;
65552;SDS011;72126;51.560;14.368;2024-02-23T13:56:30;0.53;;;0.50;;
65552;SDS011;72126;51.560;14.368;2024-02-23T13:58:55;0.40;;;0.40;;
65552;SDS011;72126;51.560;14.368;2024-02-23T14:01:20;0.40;;;0.40;;
65552;SDS011;72126;51.560;14.368;2024-02-23T14:03:45;0.50;;;0.43;;
65552;SDS011;72126;51.560;14.368;2024-02-23T14:06:11;1.17;;;0.50;;
65552;SDS011;72126;51.560;14.368;2024-02-23T14:08:36;0.50;;;0.50;;
65552;SDS011;72126;51.560;14.368;2024-02-23T14:11:01;0.40;;;0.40;;
65552;SDS011;72126;51.560;14.368;2024-02-23T14:13:26;0.40;;;0.40;;
65552;SDS011;72126;51.560;14.368;2024-02-23T14:15:51;0.40;;;0.40;;
65552;SDS011;72126;51.560;14.368;2024-02-23T14:18:17;0.47;;;0.47;;
65552;SDS011;72126;51.560;14.368;2024-02-23T14:20:42;0.40;;;0.40;;
65552;SDS011;72126;51.560;14.368;2024-02-23T14:23:07;0.40;;;0.40;;